Time;durP1;ratioP1;P1;durP2;ratioP2;P2;SDS_P1;SDS_P2;PMS_P1;PMS_P2;Temp;Humidity;BMP_temperature;BMP_pressure;BME280_temperature;BME280_humidity;BME280_pressure;Samples;Min_cycle;Max_cycle;Signal;HPM_P1;HPM_P2
2022/04/04 00:00:55;;;;;;;10.48;3.25;;;4.70;99.90;;;;;;5024697;28;20034;-82
2022/04/04 00:03:21;;;;;;;11.65;3.20;;;4.80;99.90;;;;;;5021185;28;20041;-82
2022/04/04 00:05:47;;;;;;;8.02;3.03;;;3.90;99.90;;;;;;5022829;28;20117;-82
2022/04/04 00:08:14;;;;;;;9.93;3.13;;;3.90;99.90;;;;;;4988593;28;20056;-83
2022/04/04 00:10:40;;;;;;;10.55;2.88;;;3.90;99.90;;;;;;5020455;28;20067;-83
2022/04/04 00:13:06;;;;;;;8.18;2.92;;;3.90;99.90;;;;;;5009451;28;20398;-82
2022/04/04 00:15:32;;;;;;;8.02;2.92;;;3.90;99.90;;;;;;4993455;28;20091;-82
2022/04/04 00:18:08;;;;;;;8.40;2.72;;;4.90;99.90;;;;;;5024477;28;20107;-82
2022/04/04 00:20:34;;;;;;;7.70;3.05;;;4.20;99.90;;;;;;5021263;28;20046;-82
2022/04/04 00:23:00;;;;;;;7.50;3.05;;;3.90;99.90;;;;;;5004217;28;20554;-82
2022/04/04 00:25:26;;;;;;;9.15;3.28;;;3.90;99.90;;;;;;5007379;28;20038;-82
2022/04/04 00:27:51;;;;;;;10.43;3.20;;;5.20;99.90;;;;;;5020079;28;20033;-82
2022/04/04 00:30:17;;;;;;;8.38;3.13;;;5.40;99.90;;;;;;5020685;28;20045;-82
2022/04/04 00:32:43;;;;;;;10.77;3.00;;;3.90;99.90;;;;;;5007712;28;20044;-82
2022/04/04 00:35:09;;;;;;;8.32;3.05;;;5.00;99.90;;;;;;5011941;28;20041;-82
2022/04/04 00:37:37;;;;;;;8.02;3.00;;;5.40;99.90;;;;;;5009916;28;20095;-82
2022/04/04 00:40:05;;;;;;;7.90;3.13;;;3.90;99.90;;;;;;4995255;28;20042;-83
2022/04/04 00:42:31;;;;;;;9.52;3.17;;;3.90;99.90;;;;;;5009970;28;20038;-82
2022/04/04 00:44:57;;;;;;;10.60;3.20;;;4.40;99.90;;;;;;5012077;28;20040;-82
2022/04/04 00:47:23;;;;;;;9.43;3.53;;;3.90;99.90;;;;;;5027978;28;20445;-82
2022/04/04 00:49:49;;;;;;;9.30;3.63;;;3.90;99.90;;;;;;5010699;28;20033;-84
2022/04/04 00:52:15;;;;;;;10.32;3.60;;;5.30;99.90;;;;;;5027854;28;20033;-82
2022/04/04 00:54:41;;;;;;;10.43;3.65;;;3.90;99.90;;;;;;4991241;28;20575;-82
2022/04/04 00:57:07;;;;;;;10.05;3.72;;;4.90;99.90;;;;;;5028539;28;20120;-82
2022/04/04 00:59:33;;;;;;;9.50;3.60;;;3.90;99.90;;;;;;5025044;28;20132;-82
2022/04/04 01:01:59;;;;;;;10.00;3.58;;;3.90;99.90;;;;;;5010028;28;20133;-82
2022/04/04 01:04:25;;;;;;;9.77;3.90;;;5.20;99.90;;;;;;5010437;28;20546;-83
2022/04/04 01:06:51;;;;;;;9.88;3.88;;;4.60;99.90;;;;;;5009229;28;20049;-82
2022/04/04 01:09:17;;;;;;;9.88;3.70;;;4.70;99.90;;;;;;5012783;28;20044;-83
2022/04/04 01:12:02;;;;;;;10.07;4.15;;;5.20;99.90;;;;;;5008858;28;20045;-83
2022/04/04 01:14:28;;;;;;;8.52;3.90;;;5.10;99.90;;;;;;5014293;28;20040;-82
2022/04/04 01:16:54;;;;;;;9.57;4.22;;;3.90;99.90;;;;;;4983217;28;20047;-82
2022/04/04 01:19:20;;;;;;;10.00;4.28;;;4.00;99.90;;;;;;5028536;28;20037;-82
2022/04/04 01:21:46;;;;;;;9.75;4.25;;;4.20;99.90;;;;;;4997774;28;20049;-82
2022/04/04 01:24:17;;;;;;;9.27;4.10;;;3.90;99.90;;;;;;4996886;28;20040;-82
2022/04/04 01:26:50;;;;;;;11.13;4.53;;;4.00;99.90;;;;;;5028230;28;20049;-82
2022/04/04 01:29:17;;;;;;;12.13;5.15;;;4.00;99.90;;;;;;5013909;28;20044;-82
2022/04/04 01:31:43;;;;;;;11.07;5.32;;;4.00;99.90;;;;;;4997885;28;20405;-82
2022/04/04 01:34:09;;;;;;;10.25;4.85;;;5.50;99.90;;;;;;5013882;28;20041;-81
2022/04/04 01:36:35;;;;;;;11.57;5.30;;;4.80;99.90;;;;;;5013662;28;20196;-82
2022/04/04 01:39:00;;;;;;;10.55;5.35;;;4.10;99.90;;;;;;5011992;28;20044;-82
2022/04/04 01:41:27;;;;;;;13.32;6.15;;;4.10;99.90;;;;;;5007926;28;20143;-82
2022/04/04 01:43:54;;;;;;;11.98;6.20;;;4.10;99.90;;;;;;5011519;28;20052;-82
2022/04/04 01:46:27;;;;;;;14.45;6.95;;;4.10;99.90;;;;;;5027698;28;20210;-83
2022/04/04 01:48:58;;;;;;;13.13;6.22;;;4.20;99.90;;;;;;4998801;28;20044;-82
2022/04/04 01:51:25;;;;;;;14.82;6.78;;;4.20;99.90;;;;;;5014537;28;20056;-82
2022/04/04 01:53:51;;;;;;;12.13;6.45;;;4.20;99.90;;;;;;5011066;28;20049;-82
2022/04/04 01:56:17;;;;;;;13.43;6.57;;;5.10;99.90;;;;;;5027855;28;20052;-82
2022/04/04 01:58:43;;;;;;;13.32;7.20;;;5.30;99.90;;;;;;5028299;28;20122;-82
2022/04/04 02:01:14;;;;;;;14.43;7.55;;;4.80;99.90;;;;;;5009812;28;20037;-82
2022/04/04 02:03:41;;;;;;;13.23;7.22;;;4.30;99.90;;;;;;5027422;28;20456;-82
2022/04/04 02:06:07;;;;;;;13.00;7.45;;;5.20;99.90;;;;;;5013106;28;20045;-82
2022/04/04 02:08:33;;;;;;;14.02;7.70;;;4.20;99.90;;;;;;5012810;28;20033;-82
2022/04/04 02:11:00;;;;;;;13.40;7.07;;;4.20;99.90;;;;;;5012768;28;20047;-82
2022/04/04 02:13:26;;;;;;;14.88;7.72;;;4.60;99.90;;;;;;4991916;28;20093;-82
2022/04/04 02:15:53;;;;;;;14.65;7.72;;;5.50;99.90;;;;;;4980381;28;20135;-82
2022/04/04 02:18:19;;;;;;;14.48;7.65;;;4.30;99.90;;;;;;5011374;28;20045;-82
2022/04/04 02:20:46;;;;;;;14.80;8.20;;;5.20;99.90;;;;;;4992494;28;20125;-82
2022/04/04 02:23:12;;;;;;;15.50;8.15;;;4.30;99.90;;;;;;4977851;28;20508;-82
2022/04/04 02:25:38;;;;;;;15.75;8.32;;;4.30;99.90;;;;;;4973956;28;20426;-82
2022/04/04 02:28:04;;;;;;;14.57;8.35;;;5.90;99.90;;;;;;4994920;28;20045;-82
2022/04/04 02:30:30;;;;;;;16.63;8.82;;;4.40;99.90;;;;;;4997320;28;20601;-82
2022/04/04 02:32:55;;;;;;;19.17;9.23;;;4.50;99.90;;;;;;4992591;28;20046;-82
2022/04/04 02:35:21;;;;;;;14.82;8.52;;;6.00;99.90;;;;;;4975489;28;20471;-82
2022/04/04 02:37:47;;;;;;;17.08;9.70;;;4.40;99.90;;;;;;4977767;28;20037;-83
2022/04/04 02:40:13;;;;;;;14.70;9.05;;;4.70;99.90;;;;;;5011347;28;20052;-82
2022/04/04 02:42:40;;;;;;;15.80;9.23;;;4.50;99.90;;;;;;4993832;28;20072;-82
2022/04/04 02:45:06;;;;;;;16.05;9.45;;;4.50;99.90;;;;;;4991711;28;20037;-82
2022/04/04 02:47:33;;;;;;;16.45;9.70;;;4.50;99.90;;;;;;5008713;28;20419;-82
2022/04/04 02:49:58;;;;;;;16.30;8.95;;;4.50;99.90;;;;;;4993635;28;20503;-82
2022/04/04 02:52:24;;;;;;;14.90;9.00;;;4.50;99.90;;;;;;4960526;28;20044;-82
2022/04/04 02:54:50;;;;;;;15.48;8.98;;;4.60;99.90;;;;;;4976689;28;20095;-82
2022/04/04 02:57:17;;;;;;;19.00;9.60;;;4.60;99.90;;;;;;5004051;28;20453;-82
2022/04/04 02:59:44;;;;;;;15.68;9.45;;;4.60;99.90;;;;;;4992264;28;20048;-82
2022/04/04 03:02:10;;;;;;;17.33;9.77;;;4.60;99.90;;;;;;5008155;28;20525;-82
2022/04/04 03:04:36;;;;;;;16.75;9.27;;;4.70;99.90;;;;;;4975095;28;20034;-82
2022/04/04 03:07:02;;;;;;;16.20;9.48;;;4.70;99.90;;;;;;4976218;28;20041;-82
2022/04/04 03:09:28;;;;;;;14.32;9.20;;;4.70;99.90;;;;;;4992695;28;20029;-82
2022/04/04 03:11:53;;;;;;;17.92;9.75;;;4.50;99.90;;;;;;4976903;28;20477;-82
2022/04/04 03:14:20;;;;;;;16.65;9.30;;;4.80;99.90;;;;;;4995834;28;20062;-83
2022/04/04 03:16:45;;;;;;;15.95;9.43;;;4.80;99.90;;;;;;5010783;28;20044;-82
2022/04/04 03:19:11;;;;;;;17.50;9.43;;;4.80;99.90;;;;;;5010277;28;20040;-82
2022/04/04 03:21:37;;;;;;;20.55;9.77;;;5.40;99.90;;;;;;5010835;28;20052;-82
2022/04/04 03:24:02;;;;;;;16.25;9.88;;;4.90;99.90;;;;;;5026985;28;20044;-82
2022/04/04 03:26:31;;;;;;;18.80;9.40;;;4.90;99.90;;;;;;5026066;28;20124;-82
2022/04/04 03:28:57;;;;;;;18.27;9.75;;;4.90;99.90;;;;;;5023686;28;20390;-82
2022/04/04 03:31:23;;;;;;;17.10;9.80;;;5.00;99.90;;;;;;5010675;28;20048;-82
2022/04/04 03:33:49;;;;;;;17.23;9.40;;;5.00;99.90;;;;;;5006556;28;20439;-82
2022/04/04 03:36:14;;;;;;;16.83;9.88;;;5.00;99.90;;;;;;4994349;28;20049;-82
2022/04/04 03:38:41;;;;;;;20.35;10.32;;;6.50;99.90;;;;;;5010387;28;20037;-83
2022/04/04 03:41:06;;;;;;;19.55;9.75;;;6.00;99.90;;;;;;5009105;28;20474;-83
2022/04/04 03:43:32;;;;;;;16.10;9.68;;;6.20;99.90;;;;;;5010276;28;20498;-83
2022/04/04 03:45:58;;;;;;;18.80;10.10;;;6.50;99.90;;;;;;4998528;28;20112;-82
2022/04/04 03:48:23;;;;;;;18.08;10.02;;;6.60;99.90;;;;;;5012120;28;20078;-82
2022/04/04 03:50:51;;;;;;;18.38;10.38;;;6.00;99.90;;;;;;5009926;28;20507;-82
2022/04/04 03:53:17;;;;;;;16.83;9.88;;;5.20;99.90;;;;;;4999269;28;20441;-82
2022/04/04 03:55:43;;;;;;;15.65;9.68;;;5.90;99.90;;;;;;5012032;28;20041;-82
2022/04/04 03:58:10;;;;;;;17.08;10.32;;;5.60;99.90;;;;;;5010763;28;20037;-82
2022/04/04 04:00:38;;;;;;;19.33;10.32;;;5.90;99.90;;;;;;5028200;28;20045;-83
2022/04/04 04:03:04;;;;;;;20.83;10.68;;;5.20;99.90;;;;;;4992057;28;20493;-83
2022/04/04 04:05:30;;;;;;;18.05;10.38;;;6.80;99.90;;;;;;5008260;28;20068;-82
2022/04/04 04:07:56;;;;;;;20.48;11.55;;;6.00;99.90;;;;;;4976403;28;20120;-83
2022/04/04 04:10:22;;;;;;;18.75;10.52;;;5.20;99.90;;;;;;4994068;28;20446;-83
2022/04/04 04:12:48;;;;;;;20.88;11.02;;;5.20;99.90;;;;;;5022191;28;20418;-83
2022/04/04 04:15:23;;;;;;;21.10;12.10;;;5.20;99.90;;;;;;5008523;28;20486;-83
2022/04/04 04:17:52;;;;;;;19.02;10.77;;;6.90;99.90;;;;;;5008909;28;20045;-83
2022/04/04 04:20:26;;;;;;;18.20;11.15;;;5.80;99.90;;;;;;5003263;28;20033;-83
2022/04/04 04:23:08;;;;;;;18.88;11.02;;;6.60;99.90;;;;;;5009080;28;20048;-83
2022/04/04 04:25:35;;;;;;;19.48;10.35;;;6.10;99.90;;;;;;5005700;28;20041;-83
2022/04/04 04:28:04;;;;;;;20.95;11.45;;;5.30;99.90;;;;;;5009033;28;20103;-83
2022/04/04 04:30:31;;;;;;;20.88;11.25;;;5.20;99.90;;;;;;5009257;28;20033;-83
2022/04/04 04:32:57;;;;;;;21.73;11.38;;;6.00;99.90;;;;;;5008783;28;20066;-83
2022/04/04 04:35:23;;;;;;;17.80;11.45;;;5.20;99.90;;;;;;5002240;28;20034;-83
2022/04/04 04:37:52;;;;;;;20.20;11.57;;;6.70;99.90;;;;;;4991395;28;20036;-83
2022/04/04 04:40:19;;;;;;;19.58;11.30;;;6.00;99.90;;;;;;4993164;28;20229;-83
2022/04/04 04:42:46;;;;;;;20.15;11.30;;;5.10;99.90;;;;;;4992416;28;20355;-83
2022/04/04 04:45:13;;;;;;;19.92;11.43;;;6.30;99.90;;;;;;5005411;28;20029;-83
2022/04/04 04:47:39;;;;;;;19.40;11.35;;;5.30;99.90;;;;;;4993265;28;20051;-82
2022/04/04 04:50:06;;;;;;;20.23;11.75;;;6.00;99.90;;;;;;5008622;28;20106;-83
2022/04/04 04:52:33;;;;;;;20.98;12.55;;;5.20;99.90;;;;;;5023493;28;20410;-83
2022/04/04 04:55:00;;;;;;;21.55;11.98;;;6.70;99.90;;;;;;5006571;28;20037;-83
2022/04/04 04:57:26;;;;;;;19.33;10.48;;;5.20;99.90;;;;;;4989867;28;20121;-83
2022/04/04 04:59:54;;;;;;;19.00;11.25;;;5.10;99.90;;;;;;5025106;28;20403;-82
2022/04/04 05:02:19;;;;;;;19.15;11.60;;;5.50;99.90;;;;;;4993173;28;20045;-83
2022/04/04 05:04:45;;;;;;;22.48;12.20;;;6.30;99.90;;;;;;4991053;28;20094;-84
2022/04/04 05:07:11;;;;;;;21.35;11.77;;;6.20;99.90;;;;;;4989407;28;20053;-83
2022/04/04 05:09:37;;;;;;;18.80;10.68;;;6.20;99.90;;;;;;4991913;28;20033;-84
2022/04/04 05:12:03;;;;;;;21.23;11.77;;;6.90;99.90;;;;;;5010439;28;20057;-84
2022/04/04 05:14:29;;;;;;;23.83;12.57;;;5.10;99.90;;;;;;5007499;28;20055;-83
2022/04/04 05:16:55;;;;;;;20.25;11.68;;;5.10;99.90;;;;;;5003912;28;20041;-84
2022/04/04 05:19:22;;;;;;;17.40;10.80;;;;;;;;;;4993009;28;20044;-84
2022/04/04 05:21:49;;;;;;;20.00;10.98;;;5.10;99.90;;;;;;4995381;28;20037;-84
2022/04/04 05:24:15;;;;;;;17.45;10.88;;;5.90;99.90;;;;;;5010670;28;20513;-84
2022/04/04 05:26:43;;;;;;;20.23;11.30;;;6.30;99.90;;;;;;5029533;28;20025;-85
2022/04/04 05:29:08;;;;;;;20.23;12.15;;;5.90;99.90;;;;;;5025328;28;20687;-84
2022/04/04 05:31:35;;;;;;;18.80;12.02;;;6.10;99.90;;;;;;4992842;28;20042;-84
2022/04/04 05:34:04;;;;;;;20.52;11.48;;;6.50;99.90;;;;;;4993035;28;20509;-84
2022/04/04 05:36:31;;;;;;;20.45;12.15;;;5.00;99.90;;;;;;5013253;28;20045;-85
2022/04/04 05:38:58;;;;;;;21.63;11.77;;;5.50;99.90;;;;;;5029080;28;20052;-84
2022/04/04 05:41:24;;;;;;;19.27;11.48;;;5.00;99.90;;;;;;5025038;28;20072;-85
2022/04/04 05:43:50;;;;;;;21.85;12.07;;;6.30;99.90;;;;;;5026485;28;20033;-85
2022/04/04 05:46:17;;;;;;;19.92;12.88;;;5.40;99.90;;;;;;5012068;28;20120;-85
2022/04/04 05:48:44;;;;;;;21.60;11.88;;;6.60;99.90;;;;;;4996541;28;20037;-84
2022/04/04 05:51:10;;;;;;;21.58;12.35;;;6.20;99.90;;;;;;5010160;28;20091;-84
2022/04/04 05:53:36;;;;;;;19.33;11.05;;;6.50;99.90;;;;;;4994452;28;20033;-84
2022/04/04 05:56:02;;;;;;;18.42;11.27;;;5.10;99.90;;;;;;5011406;28;20487;-84
2022/04/04 05:58:28;;;;;;;19.75;10.80;;;5.10;99.90;;;;;;4994410;28;20038;-84
2022/04/04 06:00:54;;;;;;;17.65;8.98;;;5.80;99.90;;;;;;5022180;28;20116;-85
2022/04/04 06:03:20;;;;;;;15.73;8.18;;;5.10;99.90;;;;;;5005289;28;20168;-84
2022/04/04 06:05:49;;;;;;;14.45;7.30;;;5.60;99.90;;;;;;5024068;28;20525;-84
2022/04/04 06:08:19;;;;;;;15.48;7.32;;;5.40;99.90;;;;;;5026162;28;20046;-83
2022/04/04 06:10:45;;;;;;;15.77;7.13;;;5.10;99.90;;;;;;4995771;28;20369;-84
2022/04/04 06:13:15;;;;;;;12.85;5.93;;;5.20;99.90;;;;;;5008926;28;20072;-86
2022/04/04 06:15:42;;;;;;;11.93;5.65;;;6.20;99.90;;;;;;5009513;28;20049;-85
2022/04/04 06:18:08;;;;;;;12.02;5.70;;;6.60;99.90;;;;;;4995411;28;20037;-84
2022/04/04 06:20:35;;;;;;;13.18;5.35;;;5.10;99.90;;;;;;4994633;28;20076;-84
2022/04/04 06:23:00;;;;;;;13.10;5.10;;;6.40;99.90;;;;;;5008168;28;20039;-82
2022/04/04 06:25:26;;;;;;;13.05;4.57;;;6.70;99.90;;;;;;5007332;28;20029;-83
2022/04/04 06:27:52;;;;;;;12.65;5.00;;;5.10;99.90;;;;;;5010762;28;20520;-85
2022/04/04 06:30:18;;;;;;;11.45;4.65;;;5.10;99.90;;;;;;5006734;28;20040;-85
2022/04/04 06:32:45;;;;;;;10.68;4.35;;;5.10;99.90;;;;;;5026644;28;20402;-82
2022/04/04 06:35:12;;;;;;;10.68;4.20;;;5.10;99.90;;;;;;5025754;28;20052;-83
2022/04/04 06:37:38;;;;;;;10.15;3.80;;;5.90;99.90;;;;;;4992980;28;20386;-84
2022/04/04 06:40:05;;;;;;;8.75;3.70;;;5.10;99.90;;;;;;5012250;28;20037;-84
2022/04/04 06:42:37;;;;;;;12.75;4.22;;;5.10;99.90;;;;;;5009788;28;20041;-85
2022/04/04 06:45:04;;;;;;;9.82;3.50;;;5.10;99.90;;;;;;5007209;28;20076;-83
2022/04/04 06:47:31;;;;;;;9.80;3.78;;;5.10;99.90;;;;;;5009861;28;20091;-83
2022/04/04 06:49:57;;;;;;;9.20;3.60;;;5.10;99.90;;;;;;5010951;28;20033;-82
2022/04/04 06:52:23;;;;;;;8.60;3.53;;;5.10;99.90;;;;;;5007888;28;20564;-84
2022/04/04 06:54:49;;;;;;;11.05;3.85;;;6.20;99.90;;;;;;4992128;28;20049;-82
2022/04/04 06:57:15;;;;;;;11.13;4.13;;;5.10;99.90;;;;;;4993897;28;20041;-84
2022/04/04 06:59:42;;;;;;;13.30;4.70;;;6.30;99.90;;;;;;4991953;28;20034;-84
2022/04/04 07:02:08;;;;;;;8.75;3.80;;;5.10;99.90;;;;;;5026749;28;21588;-86
2022/04/04 07:04:34;;;;;;;9.45;3.85;;;6.60;99.90;;;;;;4993860;28;20175;-84
2022/04/04 07:07:00;;;;;;;10.60;4.35;;;6.60;99.90;;;;;;5007514;28;20112;-85
2022/04/04 07:09:26;;;;;;;10.13;4.03;;;5.10;99.90;;;;;;4994112;28;20037;-86
2022/04/04 07:11:52;;;;;;;9.80;4.47;;;5.10;99.90;;;;;;5008295;28;20579;-86
2022/04/04 07:14:18;;;;;;;11.75;4.68;;;5.80;99.90;;;;;;4996771;28;20049;-84
2022/04/04 07:16:44;;;;;;;10.93;4.55;;;6.30;99.90;;;;;;5024302;28;20084;-84
2022/04/04 07:19:15;;;;;;;11.15;4.53;;;5.20;99.90;;;;;;5021911;28;20069;-86
2022/04/04 07:21:42;;;;;;;11.20;4.68;;;5.20;99.90;;;;;;5029580;28;20032;-86
2022/04/04 07:24:08;;;;;;;11.23;4.93;;;5.20;99.90;;;;;;5002822;28;20049;-85
2022/04/04 07:26:34;;;;;;;10.98;5.00;;;5.20;99.90;;;;;;5006577;28;20451;-83
2022/04/04 07:28:59;;;;;;;13.13;5.18;;;5.40;99.90;;;;;;5039528;28;20045;-85
2022/04/04 07:31:25;;;;;;;12.18;5.32;;;5.20;99.90;;;;;;5018003;28;20037;-85
2022/04/04 07:33:51;;;;;;;13.40;6.18;;;6.70;99.90;;;;;;5058400;28;20044;-85
2022/04/04 07:36:17;;;;;;;12.85;5.72;;;5.30;99.90;;;;;;5019002;28;20037;-85
2022/04/04 07:38:43;;;;;;;12.25;5.38;;;6.50;99.90;;;;;;4981034;28;20052;-85
2022/04/04 07:41:09;;;;;;;14.35;6.38;;;5.40;99.90;;;;;;5021055;28;20045;-88
2022/04/04 07:43:35;;;;;;;17.42;7.05;;;5.40;99.90;;;;;;5017393;28;20039;-85
2022/04/04 07:46:01;;;;;;;13.07;5.75;;;5.40;99.90;;;;;;5030467;28;20036;-88
2022/04/04 07:48:27;;;;;;;16.10;7.18;;;5.40;99.90;;;;;;5009472;28;20040;-83
2022/04/04 07:50:53;;;;;;;13.55;7.15;;;6.50;99.90;;;;;;5021462;28;20136;-83
2022/04/04 07:53:19;;;;;;;14.50;6.32;;;5.40;99.90;;;;;;5035340;28;20044;-84
2022/04/04 07:55:45;;;;;;;13.13;6.30;;;5.40;99.90;;;;;;5012096;28;20405;-87
2022/04/04 07:58:11;;;;;;;12.77;7.10;;;5.40;99.90;;;;;;5011535;28;20045;-85
2022/04/04 08:00:36;;;;;;;14.98;7.63;;;5.50;99.90;;;;;;4998941;28;20494;-86
2022/04/04 08:03:04;;;;;;;15.00;7.00;;;5.50;99.90;;;;;;5015150;28;20044;-85
2022/04/04 08:05:30;;;;;;;13.05;7.15;;;5.50;99.90;;;;;;4998854;28;20051;-83
2022/04/04 08:07:57;;;;;;;11.88;6.40;;;5.50;99.90;;;;;;4997539;28;20044;-84
2022/04/04 08:10:23;;;;;;;13.93;6.70;;;5.50;99.90;;;;;;4995558;28;20044;-85
2022/04/04 08:12:52;;;;;;;13.23;6.22;;;5.50;99.90;;;;;;4976265;28;20056;-85
2022/04/04 08:15:18;;;;;;;12.00;6.15;;;5.70;99.90;;;;;;4998493;28;20052;-84
2022/04/04 08:17:44;;;;;;;12.15;6.18;;;6.70;99.90;;;;;;4998685;28;20044;-84
2022/04/04 08:20:10;;;;;;;12.00;6.45;;;5.60;99.90;;;;;;5014866;28;20041;-84
2022/04/04 08:22:43;;;;;;;12.63;6.90;;;5.60;99.90;;;;;;5007927;28;20042;-84
2022/04/04 08:25:10;;;;;;;11.88;5.88;;;5.60;99.90;;;;;;4998414;28;20037;-84
2022/04/04 08:27:36;;;;;;;12.13;6.32;;;6.00;99.90;;;;;;4998774;28;20044;-85
2022/04/04 08:30:06;;;;;;;12.18;6.30;;;5.70;99.90;;;;;;4998481;28;20040;-84
2022/04/04 08:32:39;;;;;;;12.98;6.32;;;5.70;99.90;;;;;;5023573;28;20111;-86
2022/04/04 08:35:10;;;;;;;12.03;5.20;;;5.70;99.90;;;;;;5008468;28;20061;-85
2022/04/04 08:37:37;;;;;;;12.55;5.75;;;5.70;99.90;;;;;;4990111;28;20297;-84
2022/04/04 08:40:07;;;;;;;9.93;5.38;;;5.80;99.90;;;;;;5013244;28;20060;-85
2022/04/04 08:42:34;;;;;;;10.82;5.53;;;5.80;99.90;;;;;;5024169;28;20494;-83
2022/04/04 08:45:02;;;;;;;10.52;5.40;;;6.70;99.90;;;;;;5000297;28;20037;-83
2022/04/04 08:47:29;;;;;;;10.05;5.28;;;5.90;99.90;;;;;;4996648;28;20044;-84
2022/04/04 08:49:56;;;;;;;10.45;5.15;;;6.00;99.90;;;;;;5011689;28;20029;-84
2022/04/04 08:52:23;;;;;;;10.77;4.95;;;6.50;99.90;;;;;;5010130;28;20525;-83
2022/04/04 08:54:49;;;;;;;8.95;4.20;;;7.10;99.90;;;;;;5000082;28;20037;-84
2022/04/04 08:57:16;;;;;;;11.18;4.95;;;6.40;99.90;;;;;;5032112;28;20037;-84
2022/04/04 08:59:43;;;;;;;10.02;3.90;;;6.10;99.90;;;;;;5031731;28;20199;-85
2022/04/04 09:02:13;;;;;;;8.98;4.07;;;7.30;99.90;;;;;;5028268;28;20041;-86
2022/04/04 09:04:40;;;;;;;8.43;3.70;;;6.20;99.90;;;;;;5013021;28;20078;-85
2022/04/04 09:07:08;;;;;;;9.63;3.60;;;6.80;99.90;;;;;;5011421;28;20048;-84
2022/04/04 09:09:38;;;;;;;11.00;3.70;;;6.20;99.90;;;;;;5042785;28;20032;-85
2022/04/04 09:12:19;;;;;;;9.63;3.65;;;6.80;99.90;;;;;;5019889;28;20036;-84
2022/04/04 09:14:57;;;;;;;8.75;3.38;;;6.30;99.90;;;;;;5015957;28;20048;-83
2022/04/04 09:17:29;;;;;;;9.35;3.00;;;6.30;99.90;;;;;;5034631;28;20052;-83
2022/04/04 09:19:55;;;;;;;9.55;2.90;;;6.30;99.90;;;;;;5015556;28;20055;-83
2022/04/04 09:22:22;;;;;;;7.95;2.90;;;7.60;99.90;;;;;;5007950;28;20044;-83
2022/04/04 09:24:57;;;;;;;9.60;3.25;;;7.50;99.90;;;;;;5001207;28;20029;-84
2022/04/04 09:27:36;;;;;;;8.35;2.70;;;6.40;99.90;;;;;;5018088;28;20095;-83
2022/04/04 09:30:07;;;;;;;8.15;2.78;;;7.60;99.90;;;;;;5034418;28;20063;-84
2022/04/04 09:32:46;;;;;;;9.15;2.72;;;6.40;99.90;;;;;;5022035;28;20052;-84
2022/04/04 09:35:20;;;;;;;10.63;3.00;;;6.40;99.90;;;;;;5016043;28;20047;-84
2022/04/04 09:37:48;;;;;;;9.65;2.88;;;6.40;99.90;;;;;;5015915;28;20060;-84
2022/04/04 09:40:20;;;;;;;9.25;3.33;;;7.00;99.90;;;;;;4998108;28;20379;-84
2022/04/04 09:42:58;;;;;;;10.15;3.20;;;7.80;99.90;;;;;;5032448;28;20622;-85
2022/04/04 09:45:28;;;;;;;8.77;3.00;;;6.50;99.90;;;;;;5017735;28;20513;-85
2022/04/04 09:48:08;;;;;;;7.55;2.90;;;6.50;99.90;;;;;;5033211;28;20557;-85
2022/04/04 09:50:45;;;;;;;10.13;3.60;;;6.50;99.90;;;;;;5008184;28;20521;-85
2022/04/04 09:53:15;;;;;;;11.65;3.40;;;6.60;99.90;;;;;;5016981;28;20168;-84
2022/04/04 09:55:46;;;;;;;7.93;3.30;;;6.60;99.90;;;;;;5014591;28;20042;-85
2022/04/04 09:58:17;;;;;;;9.95;3.00;;;7.30;99.90;;;;;;5017005;28;20494;-85
2022/04/04 10:00:44;;;;;;;8.85;3.25;;;6.70;99.90;;;;;;5006611;28;20410;-84
2022/04/04 10:03:13;;;;;;;7.68;2.80;;;6.70;99.90;;;;;;4998302;28;20041;-85
2022/04/04 10:05:42;;;;;;;9.25;3.45;;;6.60;99.90;;;;;;5004654;28;20045;-84
2022/04/04 10:08:09;;;;;;;7.10;2.60;;;7.50;99.90;;;;;;5033471;28;20037;-84
2022/04/04 10:10:36;;;;;;;8.80;3.33;;;6.70;99.90;;;;;;5013111;28;20428;-84
2022/04/04 10:13:02;;;;;;;10.32;3.40;;;6.70;99.90;;;;;;5026639;28;20056;-85
2022/04/04 10:15:28;;;;;;;7.85;2.88;;;6.70;99.90;;;;;;4997850;28;20045;-86
2022/04/04 10:17:55;;;;;;;8.90;2.97;;;6.70;99.90;;;;;;4997658;28;20033;-82
2022/04/04 10:20:22;;;;;;;9.57;3.03;;;6.80;99.90;;;;;;5014061;28;20041;-84
2022/04/04 10:22:51;;;;;;;8.57;2.90;;;6.80;99.90;;;;;;5001569;28;20046;-84
2022/04/04 10:25:20;;;;;;;8.05;2.95;;;6.80;99.90;;;;;;4997619;28;20052;-85
2022/04/04 10:27:48;;;;;;;10.27;3.17;;;6.90;99.90;;;;;;4997228;28;20073;-84
2022/04/04 10:30:16;;;;;;;8.30;2.97;;;6.90;99.90;;;;;;4997364;28;20503;-85
2022/04/04 10:32:54;;;;;;;8.18;2.80;;;7.00;99.90;;;;;;4997149;28;20076;-85
2022/04/04 10:35:26;;;;;;;8.38;3.08;;;7.00;99.90;;;;;;5013839;28;20044;-85
2022/04/04 10:37:55;;;;;;;7.87;2.90;;;7.80;99.90;;;;;;4997146;28;20041;-86
2022/04/04 10:40:23;;;;;;;9.02;3.00;;;7.00;99.90;;;;;;4996545;28;20044;-83
2022/04/04 10:43:07;;;;;;;8.63;2.72;;;7.00;99.90;;;;;;5013063;28;20098;-85
2022/04/04 10:46:04;;;;;;;8.38;2.63;;;7.00;99.90;;;;;;4997134;28;20041;-86
2022/04/04 10:48:48;;;;;;;7.57;2.78;;;7.10;99.90;;;;;;4970146;28;20061;-84
2022/04/04 10:51:19;;;;;;;8.25;2.65;;;7.10;99.90;;;;;;5013178;28;20052;-85
2022/04/04 10:53:57;;;;;;;7.63;2.50;;;7.10;99.90;;;;;;4988766;28;20124;-85
2022/04/04 10:56:31;;;;;;;6.38;2.40;;;7.50;99.90;;;;;;4996537;28;20052;-83
2022/04/04 10:59:15;;;;;;;7.25;2.25;;;7.10;99.90;;;;;;4973369;28;20112;-84
2022/04/04 11:01:52;;;;;;;6.78;2.30;;;7.80;99.90;;;;;;4996904;28;20044;-85
2022/04/04 11:04:24;;;;;;;7.15;2.53;;;7.90;99.90;;;;;;4996601;28;20045;-84
2022/04/04 11:09:51;;;;;;;6.72;2.10;;;7.20;99.90;;;;;;5005674;28;20056;-86
2022/04/04 11:12:18;;;;;;;6.97;2.40;;;7.20;99.90;;;;;;4964025;28;20041;-85
2022/04/04 11:14:54;;;;;;;5.28;2.03;;;7.30;99.90;;;;;;4981509;28;20062;-85
2022/04/04 11:17:32;;;;;;;7.25;2.00;;;7.90;99.90;;;;;;4991755;28;20052;-84
2022/04/04 11:20:04;;;;;;;5.78;2.10;;;7.30;99.90;;;;;;5012475;28;20052;-85
2022/04/04 11:22:46;;;;;;;6.55;2.20;;;7.30;99.90;;;;;;4993016;28;20038;-85
2022/04/04 11:25:17;;;;;;;6.80;2.00;;;7.60;99.90;;;;;;4993063;28;20056;-84
2022/04/04 11:27:48;;;;;;;6.97;2.45;;;8.50;99.90;;;;;;5009621;28;20045;-85
2022/04/04 11:30:15;;;;;;;5.18;1.90;;;7.30;99.90;;;;;;4996084;28;20410;-84
2022/04/04 11:32:43;;;;;;;5.57;1.80;;;7.30;99.90;;;;;;4993294;28;20590;-85
2022/04/04 11:35:27;;;;;;;5.97;1.73;;;7.40;99.90;;;;;;5001029;28;20187;-85
2022/04/04 11:38:03;;;;;;;4.82;1.80;;;7.40;99.90;;;;;;5012717;28;20100;-85
2022/04/04 11:40:56;;;;;;;4.90;1.75;;;8.60;99.90;;;;;;5004345;28;20041;-85
2022/04/04 11:43:24;;;;;;;3.50;1.42;;;7.40;99.90;;;;;;5006095;28;20046;-85
2022/04/04 11:45:52;;;;;;;5.50;1.77;;;7.40;99.90;;;;;;5013528;28;20029;-85
2022/04/04 11:48:27;;;;;;;4.82;1.60;;;7.40;99.90;;;;;;5012348;28;20046;-85
2022/04/04 11:50:57;;;;;;;5.78;1.60;;;7.50;99.90;;;;;;4994025;28;20041;-84
2022/04/04 11:53:25;;;;;;;3.13;1.50;;;7.90;99.90;;;;;;4994385;28;20041;-85
2022/04/04 11:55:56;;;;;;;3.38;1.40;;;7.90;99.90;;;;;;5001712;28;20052;-85
2022/04/04 11:58:25;;;;;;;5.30;1.52;;;7.70;99.90;;;;;;5011846;28;20632;-84
2022/04/04 12:00:55;;;;;;;2.33;1.30;;;7.60;99.90;;;;;;5010903;28;20034;-85
2022/04/04 12:03:23;;;;;;;3.40;1.40;;;7.70;99.90;;;;;;4996019;28;20052;-85
2022/04/04 12:05:50;;;;;;;2.75;1.30;;;7.70;99.90;;;;;;4994941;28;20029;-85
2022/04/04 12:08:17;;;;;;;4.40;1.50;;;7.90;99.90;;;;;;4995587;28;20049;-86
2022/04/04 12:10:46;;;;;;;1.65;1.13;;;7.70;99.90;;;;;;4995142;28;20045;-85
2022/04/04 12:13:19;;;;;;;3.22;1.30;;;7.70;99.90;;;;;;5009022;28;20044;-84
2022/04/04 12:15:47;;;;;;;2.83;1.20;;;7.80;99.90;;;;;;5011109;28;20045;-85
2022/04/04 12:18:23;;;;;;;2.25;1.20;;;8.70;99.90;;;;;;5011948;28;20525;-86
2022/04/04 12:20:51;;;;;;;5.50;1.60;;;7.80;99.90;;;;;;4994076;28;20041;-86
2022/04/04 12:26:15;;;;;;;3.20;1.20;;;7.80;99.90;;;;;;5011086;28;20052;-85
2022/04/04 12:28:50;;;;;;;1.65;1.05;;;7.10;99.90;;;;;;5009699;28;20033;-85
2022/04/04 12:31:19;;;;;;;2.35;1.10;;;7.90;99.90;;;;;;5017864;28;20064;-85
2022/04/04 12:33:51;;;;;;;2.55;1.10;;;8.00;99.90;;;;;;5017584;28;20128;-85
2022/04/04 12:36:32;;;;;;;2.63;1.20;;;8.00;99.90;;;;;;5016282;28;20037;-85
2022/04/04 12:38:59;;;;;;;2.95;1.20;;;8.10;99.90;;;;;;5013483;28;20426;-86
2022/04/04 12:41:26;;;;;;;3.15;1.48;;;8.10;99.90;;;;;;4985375;28;20033;-85
2022/04/04 12:44:02;;;;;;;4.18;1.40;;;8.10;99.90;;;;;;5015258;28;20375;-86
2022/04/04 12:46:33;;;;;;;3.00;1.30;;;8.10;99.90;;;;;;5011163;28;20037;-86
2022/04/04 12:49:19;;;;;;;3.00;1.25;;;8.60;99.90;;;;;;5001841;28;20497;-87
2022/04/04 12:51:58;;;;;;;3.72;1.48;;;8.20;99.90;;;;;;5009200;28;20454;-86
2022/04/04 12:54:34;;;;;;;3.50;1.40;;;8.20;99.90;;;;;;4997250;28;20103;-86
2022/04/04 12:57:08;;;;;;;1.85;1.15;;;8.30;99.90;;;;;;5015322;28;20052;-86
2022/04/04 12:59:53;;;;;;;3.47;1.50;;;8.30;99.90;;;;;;5016407;28;20052;-86
2022/04/04 13:02:18;;;;;;;2.95;1.30;;;8.30;99.90;;;;;;5003238;28;20578;-87